createdAt,value
2023-04-15T00:00:02.410Z,12.8
2023-04-15T00:02:13.567Z,12.7
2023-04-15T00:04:02.596Z,12.6
2023-04-15T00:06:03.133Z,12.5
2023-04-15T00:08:02.362Z,12.5
2023-04-15T00:10:03.844Z,12.5
2023-04-15T00:12:02.965Z,12.5
2023-04-15T00:14:04.023Z,12.4
2023-04-15T00:16:03.142Z,12.4
2023-04-15T00:18:03.788Z,12.4
2023-04-15T00:20:03.173Z,12.4
2023-04-15T00:22:02.528Z,12.4
2023-04-15T00:24:03.232Z,12.4
2023-04-15T00:26:02.547Z,12.5
2023-04-15T00:28:02.357Z,12.5
2023-04-15T00:30:03.643Z,12.6
2023-04-15T00:32:02.357Z,12.6
2023-04-15T00:34:03.224Z,12.6
2023-04-15T00:36:03.078Z,12.5
2023-04-15T00:38:04.381Z,12.5
2023-04-15T00:40:05.367Z,12.5
2023-04-15T00:42:02.742Z,12.5
2023-04-15T00:44:02.370Z,12.6
2023-04-15T00:46:05.761Z,12.6
2023-04-15T00:48:02.911Z,12.6
2023-04-15T00:50:02.538Z,12.7
2023-04-15T00:52:04.335Z,12.7
2023-04-15T00:54:02.891Z,12.7
2023-04-15T00:56:02.323Z,12.8
2023-04-15T00:58:02.524Z,12.8
2023-04-15T01:00:04.096Z,12.7
2023-04-15T01:02:03.060Z,12.6
2023-04-15T01:04:03.588Z,12.6
2023-04-15T01:06:04.270Z,12.5
2023-04-15T01:08:03.933Z,12.5
2023-04-15T01:10:03.179Z,12.5
2023-04-15T01:12:03.593Z,12.5
2023-04-15T01:14:03.200Z,12.5
2023-04-15T01:16:03.255Z,12.6
2023-04-15T01:18:03.195Z,12.6
2023-04-15T01:20:02.771Z,12.6
2023-04-15T01:22:04.827Z,12.6
2023-04-15T01:24:06.392Z,12.6
2023-04-15T01:26:03.543Z,12.6
2023-04-15T01:28:03.094Z,12.6
2023-04-15T01:30:04.712Z,12.5
2023-04-15T01:32:03.667Z,12.4
2023-04-15T01:34:02.737Z,12.3
2023-04-15T01:36:03.204Z,12.2
2023-04-15T01:38:06.899Z,12.1
2023-04-15T01:40:03.169Z,12.1
2023-04-15T01:42:02.877Z,12.1
2023-04-15T01:44:03.032Z,11.9
2023-04-15T01:46:02.591Z,11.9
2023-04-15T01:48:02.495Z,11.9
2023-04-15T01:50:02.394Z,11.9
2023-04-15T01:52:02.410Z,11.9
2023-04-15T01:54:02.430Z,11.8
2023-04-15T01:56:02.717Z,11.8
2023-04-15T01:58:02.381Z,11.8
2023-04-15T02:00:03.482Z,11.7
2023-04-15T02:02:02.572Z,11.6
2023-04-15T02:04:02.391Z,11.6
2023-04-15T02:06:04.060Z,11.6
2023-04-15T02:08:03.210Z,11.5
2023-04-15T02:10:03.606Z,11.4
2023-04-15T02:12:02.890Z,11.3
2023-04-15T02:14:03.637Z,11.2
2023-04-15T02:16:04.047Z,11.1
2023-04-15T02:18:03.063Z,11.0
2023-04-15T02:20:05.361Z,10.9
2023-04-15T02:22:02.400Z,10.8
2023-04-15T02:24:03.734Z,10.7
2023-04-15T02:26:02.474Z,10.6
2023-04-15T02:28:02.395Z,10.5
2023-04-15T02:30:02.608Z,10.4
2023-04-15T02:32:02.620Z,10.3
2023-04-15T02:34:03.843Z,10.2
2023-04-15T02:36:02.495Z,10.2
2023-04-15T02:38:02.639Z,10.1
2023-04-15T02:40:04.417Z,10.0
2023-04-15T02:42:02.348Z,9.9
2023-04-15T02:44:02.589Z,9.8
2023-04-15T02:46:02.515Z,9.8
2023-04-15T02:48:05.566Z,9.7
2023-04-15T02:50:04.323Z,9.7
2023-04-15T02:52:02.373Z,9.6
2023-04-15T02:54:02.355Z,9.6
2023-04-15T02:56:02.976Z,9.5
2023-04-15T02:58:02.624Z,9.5
2023-04-15T03:00:02.681Z,9.4
2023-04-15T03:02:03.355Z,9.3
2023-04-15T03:04:03.044Z,9.3
2023-04-15T03:06:02.371Z,9.3
2023-04-15T03:08:03.636Z,9.2
2023-04-15T03:10:02.378Z,9.2
2023-04-15T03:12:02.646Z,9.1
2023-04-15T03:14:02.593Z,9.1
2023-04-15T03:16:02.514Z,9.1
2023-04-15T03:18:02.391Z,9.1
2023-04-15T03:20:04.565Z,9.1
2023-04-15T03:22:03.012Z,9.0
2023-04-15T03:24:02.332Z,9.0
2023-04-15T03:26:03.306Z,9.0
2023-04-15T03:28:02.340Z,9.0
2023-04-15T03:30:02.784Z,9.0
2023-04-15T03:32:02.574Z,9.1
2023-04-15T03:34:03.174Z,9.1
2023-04-15T03:36:02.340Z,9.1
2023-04-15T03:38:02.539Z,9.1
2023-04-15T03:40:03.391Z,9.1
2023-04-15T03:42:03.219Z,9.1
2023-04-15T03:44:02.501Z,9.1
2023-04-15T03:46:02.665Z,9.0
2023-04-15T03:50:03.755Z,8.9
2023-04-15T03:52:02.374Z,8.8
2023-04-15T03:54:02.373Z,8.8
2023-04-15T03:56:03.263Z,8.7
2023-04-15T03:58:02.366Z,8.6
2023-04-15T04:00:02.441Z,8.5
2023-04-15T04:02:02.876Z,8.4
2023-04-15T04:04:03.014Z,8.4
2023-04-15T04:06:02.912Z,8.4
2023-04-15T04:08:03.257Z,8.4
2023-04-15T04:10:03.500Z,8.4
2023-04-15T04:12:03.702Z,8.3
2023-04-15T04:14:03.855Z,8.4
2023-04-15T04:16:04.092Z,8.4
2023-04-15T04:18:02.676Z,8.4
2023-04-15T04:20:03.734Z,8.4
2023-04-15T04:22:02.413Z,8.4
2023-04-15T04:24:03.142Z,8.4
2023-04-15T04:26:02.636Z,8.4
2023-04-15T04:28:02.549Z,8.4
2023-04-15T04:30:02.424Z,8.4
2023-04-15T04:32:03.324Z,8.4
2023-04-15T04:34:02.381Z,8.4
2023-04-15T04:36:03.152Z,8.4
2023-04-15T04:38:02.559Z,8.4
2023-04-15T04:40:02.521Z,8.4
2023-04-15T04:42:02.384Z,8.4
2023-04-15T04:44:03.085Z,8.4
2023-04-15T04:46:02.502Z,8.4
2023-04-15T04:48:06.324Z,8.4
2023-04-15T04:50:03.014Z,8.4
2023-04-15T04:52:02.409Z,8.4
2023-04-15T04:54:03.805Z,8.4
2023-04-15T04:56:02.517Z,8.4
2023-04-15T04:58:03.132Z,8.3
2023-04-15T05:00:04.459Z,8.3
2023-04-15T05:02:02.895Z,8.3
2023-04-15T05:04:04.458Z,8.3
2023-04-15T05:06:05.557Z,8.2
2023-04-15T05:08:02.737Z,8.2
2023-04-15T05:10:03.204Z,8.2
2023-04-15T05:12:03.642Z,8.2
2023-04-15T05:14:02.452Z,8.1
2023-04-15T05:16:03.054Z,8.1
2023-04-15T05:18:03.184Z,8.1
2023-04-15T05:20:03.193Z,8.0
2023-04-15T05:22:02.750Z,8.0
2023-04-15T05:24:02.341Z,7.9
2023-04-15T05:26:02.448Z,7.9
2023-04-15T05:28:02.446Z,7.9
2023-04-15T05:30:02.469Z,7.9
2023-04-15T05:32:02.492Z,7.9
2023-04-15T05:34:02.863Z,7.9
2023-04-15T05:36:02.329Z,7.9
2023-04-15T05:38:02.366Z,7.9
2023-04-15T05:40:04.092Z,7.9
2023-04-15T05:42:02.925Z,7.8
2023-04-15T05:44:02.741Z,7.8
2023-04-15T05:46:02.899Z,7.8
2023-04-15T05:48:02.372Z,7.8
2023-04-15T05:50:02.731Z,7.8
2023-04-15T05:52:03.210Z,7.8
2023-04-15T05:54:02.387Z,7.8
2023-04-15T05:56:03.361Z,7.7
2023-04-15T05:58:03.544Z,7.7
2023-04-15T06:00:02.610Z,7.7
2023-04-15T06:02:02.564Z,7.7
2023-04-15T06:04:03.118Z,7.6
2023-04-15T06:06:03.107Z,7.6
2023-04-15T06:08:02.663Z,7.6
2023-04-15T06:10:03.291Z,7.5
2023-04-15T06:12:02.510Z,7.5
2023-04-15T06:14:02.625Z,7.4
2023-04-15T06:16:03.912Z,7.4
2023-04-15T06:18:03.119Z,7.4
2023-04-15T06:20:02.608Z,7.4
2023-04-15T06:22:03.422Z,7.4
2023-04-15T06:24:03.216Z,7.3
2023-04-15T06:26:03.170Z,7.3
2023-04-15T06:28:02.598Z,7.3
2023-04-15T06:30:02.534Z,7.3
2023-04-15T06:32:02.483Z,7.3
2023-04-15T06:34:02.413Z,7.2
2023-04-15T06:36:02.273Z,7.2
2023-04-15T06:38:02.479Z,7.2
2023-04-15T06:40:04.500Z,7.2
2023-04-15T06:42:03.955Z,7.1
2023-04-15T06:44:02.534Z,7.1
2023-04-15T06:46:02.453Z,7.1
2023-04-15T06:48:02.890Z,7.1
2023-04-15T06:50:03.681Z,7.1
2023-04-15T06:52:04.499Z,7.0
2023-04-15T06:54:05.247Z,7.0
2023-04-15T06:56:02.504Z,6.9
2023-04-15T06:58:02.354Z,6.9
2023-04-15T07:00:05.152Z,6.9
2023-04-15T07:02:02.991Z,6.9
2023-04-15T07:04:02.374Z,6.9
2023-04-15T07:06:05.818Z,6.9
2023-04-15T07:08:03.230Z,6.8
2023-04-15T07:10:02.908Z,6.8
2023-04-15T07:12:02.600Z,6.8
2023-04-15T07:14:02.756Z,6.8
2023-04-15T07:16:02.351Z,6.7
2023-04-15T07:18:02.385Z,6.8
2023-04-15T07:20:03.596Z,6.7
2023-04-15T07:22:02.489Z,6.7
2023-04-15T07:24:03.080Z,6.7
2023-04-15T07:26:03.602Z,6.7
2023-04-15T07:28:03.141Z,6.6
2023-04-15T07:30:02.529Z,6.6
2023-04-15T07:32:02.506Z,6.6
2023-04-15T07:34:02.947Z,6.6
2023-04-15T07:36:02.404Z,6.6
2023-04-15T07:38:02.332Z,6.6
2023-04-15T07:40:06.487Z,6.6
2023-04-15T07:42:02.572Z,6.6
2023-04-15T07:44:02.611Z,6.6
2023-04-15T07:46:02.363Z,6.5
2023-04-15T07:48:03.059Z,6.5
2023-04-15T07:50:03.036Z,6.6
2023-04-15T07:52:03.257Z,6.5
2023-04-15T07:54:02.711Z,6.5
2023-04-15T07:56:03.041Z,6.4
2023-04-15T07:58:02.413Z,6.5
2023-04-15T08:00:07.125Z,6.4
2023-04-15T08:02:03.721Z,6.4
2023-04-15T08:04:02.877Z,6.4
2023-04-15T08:06:02.894Z,6.4
2023-04-15T08:08:02.542Z,6.5
2023-04-15T08:10:02.340Z,6.5
2023-04-15T08:12:02.448Z,6.6
2023-04-15T08:14:02.383Z,6.6
2023-04-15T08:16:19.106Z,6.5
2023-04-15T08:18:02.316Z,6.5
2023-04-15T08:20:05.275Z,6.4
2023-04-15T08:22:03.176Z,6.4
2023-04-15T08:24:02.695Z,6.4
2023-04-15T08:26:02.391Z,6.3
2023-04-15T08:28:06.556Z,6.3
2023-04-15T08:30:05.031Z,6.3
2023-04-15T08:32:02.604Z,6.2
2023-04-15T08:34:03.032Z,6.2
2023-04-15T08:36:02.779Z,6.2
2023-04-15T08:38:02.322Z,6.1
2023-04-15T08:40:02.435Z,6.1
2023-04-15T08:42:06.692Z,6.1
2023-04-15T08:44:05.451Z,6.1
2023-04-15T08:46:04.182Z,6.1
2023-04-15T08:48:06.172Z,6.1
2023-04-15T08:50:05.363Z,6.1
2023-04-15T08:52:03.878Z,6.0
2023-04-15T08:54:03.671Z,6.0
2023-04-15T08:56:07.966Z,6.0
2023-04-15T08:58:03.104Z,5.9
2023-04-15T09:00:05.676Z,6.0
2023-04-15T09:02:03.885Z,5.9
2023-04-15T09:04:06.092Z,5.9
2023-04-15T09:06:04.249Z,5.9
2023-04-15T09:08:03.505Z,5.9
2023-04-15T09:10:04.389Z,5.9
2023-04-15T09:12:02.400Z,5.9
2023-04-15T09:14:03.162Z,5.9
2023-04-15T09:16:03.744Z,5.9
2023-04-15T09:18:02.353Z,5.9
2023-04-15T09:20:12.457Z,5.9
2023-04-15T09:22:03.073Z,5.9
2023-04-15T09:24:03.462Z,5.9
2023-04-15T09:26:03.752Z,5.9
2023-04-15T09:28:03.356Z,5.9
2023-04-15T09:30:02.445Z,5.9
2023-04-15T09:32:13.094Z,5.9
2023-04-15T09:34:02.839Z,5.9
2023-04-15T09:36:05.544Z,5.9
2023-04-15T09:38:04.867Z,5.9
2023-04-15T09:40:02.444Z,5.9
2023-04-15T09:42:07.332Z,5.9
2023-04-15T09:44:02.628Z,5.9
2023-04-15T09:46:02.353Z,5.9
2023-04-15T09:48:16.667Z,5.9
2023-04-15T09:50:03.254Z,5.8
2023-04-15T09:52:06.106Z,5.8
2023-04-15T09:54:03.100Z,5.8
2023-04-15T09:56:06.916Z,5.7
2023-04-15T09:58:02.518Z,5.7
2023-04-15T10:00:04.849Z,5.6
2023-04-15T10:02:05.164Z,5.6
2023-04-15T10:04:05.112Z,5.5
2023-04-15T10:06:03.532Z,5.5
2023-04-15T10:08:03.808Z,5.4
2023-04-15T10:10:04.842Z,5.4
2023-04-15T10:12:04.239Z,5.4
2023-04-15T10:14:04.164Z,5.4
2023-04-15T10:16:06.576Z,5.4
2023-04-15T10:18:05.251Z,5.3
2023-04-15T10:20:04.706Z,5.3
2023-04-15T10:22:03.129Z,5.3
2023-04-15T10:24:05.047Z,5.3
2023-04-15T10:26:02.832Z,5.3
2023-04-15T10:28:03.109Z,5.3
2023-04-15T10:30:03.457Z,5.3
2023-04-15T10:32:04.333Z,5.3
2023-04-15T10:34:05.859Z,5.2
2023-04-15T10:36:02.634Z,5.2
2023-04-15T10:38:02.447Z,5.2
2023-04-15T10:40:21.411Z,5.2
2023-04-15T10:42:07.933Z,5.2
2023-04-15T10:44:04.434Z,5.2
2023-04-15T10:46:02.391Z,5.1
2023-04-15T10:48:04.888Z,5.1
2023-04-15T10:50:03.129Z,5.1
2023-04-15T10:52:03.082Z,5.1
2023-04-15T10:54:02.388Z,5.1
2023-04-15T10:56:05.294Z,5.1
2023-04-15T10:58:03.306Z,5.0
2023-04-15T11:00:11.625Z,5.0
2023-04-15T11:02:04.704Z,5.0
2023-04-15T11:04:02.966Z,4.9
2023-04-15T11:06:02.585Z,4.9
2023-04-15T11:08:02.814Z,4.9
2023-04-15T11:10:04.278Z,4.9
2023-04-15T11:12:07.895Z,4.9
2023-04-15T11:14:04.098Z,4.9
2023-04-15T11:16:04.021Z,4.8
2023-04-15T11:18:11.009Z,4.8
2023-04-15T11:20:03.969Z,4.8
2023-04-15T11:22:06.894Z,4.8
2023-04-15T11:24:04.072Z,4.8
2023-04-15T11:26:06.300Z,4.8
2023-04-15T11:28:03.232Z,4.8
2023-04-15T11:30:02.354Z,4.8
2023-04-15T11:32:05.877Z,4.8
2023-04-15T11:34:03.472Z,4.8
2023-04-15T11:36:03.018Z,4.8
2023-04-15T11:38:03.866Z,4.9
2023-04-15T11:40:03.568Z,4.9
2023-04-15T11:42:02.437Z,4.9
2023-04-15T11:44:02.999Z,4.9
2023-04-15T11:46:04.210Z,4.9
2023-04-15T11:48:06.466Z,5.0
2023-04-15T11:50:16.166Z,5.0
2023-04-15T11:52:10.374Z,5.0
2023-04-15T11:54:03.532Z,5.0
2023-04-15T11:56:03.107Z,5.1
2023-04-15T11:58:11.445Z,5.1
2023-04-15T12:00:04.545Z,5.1
2023-04-15T12:02:12.301Z,5.1
2023-04-15T12:04:11.042Z,5.2
2023-04-15T12:06:04.248Z,5.2
2023-04-15T12:08:02.555Z,5.2
2023-04-15T12:10:05.116Z,5.2
2023-04-15T12:12:02.438Z,5.2
2023-04-15T12:14:05.953Z,5.2
2023-04-15T12:16:04.615Z,5.2
2023-04-15T12:18:02.316Z,5.3
2023-04-15T12:20:02.794Z,5.2
2023-04-15T12:22:04.784Z,5.2
2023-04-15T12:24:04.363Z,5.3
2023-04-15T12:26:05.491Z,5.3
2023-04-15T12:28:02.337Z,5.3
2023-04-15T12:30:07.382Z,5.3
2023-04-15T12:32:07.360Z,5.2
2023-04-15T12:34:04.549Z,5.2
2023-04-15T12:36:02.953Z,5.2
2023-04-15T12:38:02.329Z,5.2
2023-04-15T12:40:02.468Z,5.2
2023-04-15T12:42:04.660Z,5.2
2023-04-15T12:44:03.567Z,5.1
2023-04-15T12:46:02.397Z,5.1
2023-04-15T12:48:02.399Z,5.1
2023-04-15T12:50:02.617Z,5.1
2023-04-15T12:52:03.755Z,5.1
2023-04-15T12:54:03.225Z,5.1
2023-04-15T12:56:02.740Z,5.1
2023-04-15T12:58:02.351Z,5.1
2023-04-15T13:00:06.273Z,5.1
2023-04-15T13:02:02.497Z,5.1
2023-04-15T13:04:02.742Z,5.0
2023-04-15T13:06:04.326Z,4.9
2023-04-15T13:08:03.475Z,4.9
2023-04-15T13:10:02.380Z,4.9
2023-04-15T13:12:04.844Z,4.9
2023-04-15T13:14:04.144Z,4.9
2023-04-15T13:16:02.716Z,4.8
2023-04-15T13:18:02.546Z,4.8
2023-04-15T13:20:02.861Z,4.8
2023-04-15T13:22:03.166Z,4.8
2023-04-15T13:24:02.853Z,4.8
2023-04-15T13:26:02.486Z,4.8
2023-04-15T13:28:02.608Z,4.8
2023-04-15T13:30:02.923Z,4.8
2023-04-15T13:32:02.918Z,4.8
2023-04-15T13:34:02.507Z,4.8
2023-04-15T13:36:03.067Z,4.8
2023-04-15T13:38:02.378Z,4.8
2023-04-15T13:40:03.008Z,4.8
2023-04-15T13:42:02.672Z,4.8
2023-04-15T13:44:03.007Z,4.8
2023-04-15T13:46:02.527Z,4.8
2023-04-15T13:48:03.314Z,4.8
2023-04-15T13:50:02.347Z,4.8
2023-04-15T13:52:03.027Z,4.8
2023-04-15T13:54:03.456Z,4.8
2023-04-15T13:56:02.722Z,4.8
2023-04-15T13:58:03.443Z,4.8
2023-04-15T14:00:03.889Z,4.8
2023-04-15T14:02:03.062Z,4.8
2023-04-15T14:04:02.669Z,4.8
2023-04-15T14:06:02.628Z,4.8
2023-04-15T14:08:02.583Z,4.8
2023-04-15T14:10:02.363Z,4.8
2023-04-15T14:12:02.585Z,4.8
2023-04-15T14:14:03.241Z,4.8
2023-04-15T14:16:02.497Z,4.8
2023-04-15T14:18:02.545Z,4.8
2023-04-15T14:20:03.361Z,4.8
2023-04-15T14:22:02.962Z,4.8
2023-04-15T14:24:02.528Z,4.9
2023-04-15T14:26:02.911Z,4.9
2023-04-15T14:28:03.682Z,4.9
2023-04-15T14:30:03.030Z,5.0
2023-04-15T14:32:06.206Z,5.0
2023-04-15T14:34:03.363Z,5.1
2023-04-15T14:36:03.556Z,5.1
2023-04-15T14:38:02.941Z,5.1
2023-04-15T14:40:02.642Z,5.2
2023-04-15T14:42:02.382Z,5.2
2023-04-15T14:44:02.525Z,5.2
2023-04-15T14:46:02.442Z,5.3
2023-04-15T14:48:03.135Z,5.3
2023-04-15T14:50:03.465Z,5.3
2023-04-15T14:52:02.464Z,5.4
2023-04-15T14:54:02.690Z,5.5
2023-04-15T14:56:02.634Z,5.5
2023-04-15T14:58:02.437Z,5.6
2023-04-15T15:00:03.570Z,5.6
2023-04-15T15:02:03.336Z,5.7
2023-04-15T15:04:03.616Z,5.7
2023-04-15T15:06:03.236Z,5.8
2023-04-15T15:08:03.175Z,5.8
2023-04-15T15:10:02.549Z,5.8
2023-04-15T15:12:02.875Z,5.9
2023-04-15T15:14:02.882Z,5.9
2023-04-15T15:16:03.383Z,5.9
2023-04-15T15:18:03.073Z,6.0
2023-04-15T15:20:03.037Z,6.1
2023-04-15T15:22:03.954Z,6.1
2023-04-15T15:24:02.493Z,6.1
2023-04-15T15:26:02.425Z,6.2
2023-04-15T15:28:02.371Z,6.2
2023-04-15T15:30:02.370Z,6.2
2023-04-15T15:32:02.584Z,6.3
2023-04-15T15:34:02.610Z,6.3
2023-04-15T15:36:03.451Z,6.4
2023-04-15T15:38:02.779Z,6.5
2023-04-15T15:40:05.318Z,6.6
2023-04-15T15:42:02.965Z,6.6
2023-04-15T15:44:03.639Z,6.7
2023-04-15T15:46:03.238Z,6.8
2023-04-15T15:48:02.762Z,6.8
2023-04-15T15:50:06.039Z,6.9
2023-04-15T15:52:02.437Z,6.9
2023-04-15T15:54:02.317Z,7.0
2023-04-15T15:56:03.560Z,7.1
2023-04-15T15:58:02.396Z,7.1
2023-04-15T16:02:03.180Z,7.3
2023-04-15T16:04:02.739Z,7.3
2023-04-15T16:06:03.630Z,7.4
2023-04-15T16:08:02.832Z,7.4
2023-04-15T16:10:03.013Z,7.5
2023-04-15T16:12:03.633Z,7.6
2023-04-15T16:14:02.378Z,7.6
2023-04-15T16:16:02.355Z,7.7
2023-04-15T16:18:03.291Z,7.6
2023-04-15T16:20:05.001Z,7.7
2023-04-15T16:22:03.022Z,7.7
2023-04-15T16:24:02.995Z,7.7
2023-04-15T16:26:02.528Z,7.8
2023-04-15T16:28:11.437Z,7.8
2023-04-15T16:30:03.415Z,7.8
2023-04-15T16:32:02.576Z,7.9
2023-04-15T16:34:03.443Z,7.9
2023-04-15T16:36:02.494Z,8.0
2023-04-15T16:38:02.986Z,8.0
2023-04-15T16:40:03.847Z,8.1
2023-04-15T16:42:03.428Z,8.1
2023-04-15T16:44:03.150Z,8.1
2023-04-15T16:46:02.384Z,8.1
2023-04-15T16:48:02.554Z,8.2
2023-04-15T16:50:02.565Z,8.2
2023-04-15T16:52:03.266Z,8.2
2023-04-15T16:54:02.579Z,8.2
2023-04-15T16:56:02.506Z,8.2
2023-04-15T16:58:04.339Z,8.3
2023-04-15T17:00:02.622Z,8.3
2023-04-15T17:02:02.367Z,8.4
2023-04-15T17:04:02.821Z,8.6
2023-04-15T17:06:02.410Z,8.6
2023-04-15T17:08:02.579Z,8.7
2023-04-15T17:10:03.112Z,8.8
2023-04-15T17:12:04.161Z,8.8
2023-04-15T17:14:03.688Z,8.8
2023-04-15T17:16:02.456Z,8.8
2023-04-15T17:18:02.701Z,8.9
2023-04-15T17:20:02.986Z,9.0
2023-04-15T17:22:02.404Z,9.2
2023-04-15T17:24:02.533Z,9.3
2023-04-15T17:26:02.742Z,9.4
2023-04-15T17:28:02.448Z,9.4
2023-04-15T17:30:02.584Z,9.5
2023-04-15T17:32:03.218Z,9.6
2023-04-15T17:34:08.059Z,9.6
2023-04-15T17:36:02.712Z,9.6
2023-04-15T17:38:04.638Z,9.7
2023-04-15T17:40:02.520Z,9.7
2023-04-15T17:42:03.081Z,9.7
2023-04-15T17:44:02.614Z,9.7
2023-04-15T17:46:03.146Z,9.6
2023-04-15T17:48:03.721Z,9.7
2023-04-15T17:50:02.352Z,9.7
2023-04-15T17:52:02.335Z,9.7
2023-04-15T17:54:02.611Z,9.7
2023-04-15T17:56:02.526Z,9.8
2023-04-15T17:58:03.235Z,9.8
2023-04-15T18:00:02.662Z,9.8
2023-04-15T18:02:02.459Z,9.9
2023-04-15T18:04:02.624Z,9.9
2023-04-15T18:06:02.677Z,9.9
2023-04-15T18:08:02.723Z,9.9
2023-04-15T18:10:02.631Z,9.9
2023-04-15T18:12:04.172Z,9.9
2023-04-15T18:14:03.765Z,9.9
2023-04-15T18:16:03.136Z,9.9
2023-04-15T18:18:03.279Z,10.0
2023-04-15T18:20:03.357Z,10.1
2023-04-15T18:22:03.463Z,10.2
2023-04-15T18:24:02.561Z,10.2
2023-04-15T18:26:02.862Z,10.2
2023-04-15T18:28:03.227Z,10.2
2023-04-15T18:30:02.891Z,10.2
2023-04-15T18:32:03.206Z,10.2
2023-04-15T18:34:04.704Z,10.2
2023-04-15T18:36:02.647Z,10.1
2023-04-15T18:38:02.440Z,10.2
2023-04-15T18:40:02.986Z,10.3
2023-04-15T18:42:02.399Z,10.3
2023-04-15T18:44:03.297Z,10.3
2023-04-15T18:46:03.372Z,10.3
2023-04-15T18:48:02.845Z,10.4
2023-04-15T18:50:02.449Z,10.3
2023-04-15T18:52:03.614Z,10.4
2023-04-15T18:54:02.367Z,10.5
2023-04-15T18:56:03.976Z,10.6
2023-04-15T18:58:08.550Z,10.7
2023-04-15T19:00:03.086Z,10.8
2023-04-15T19:02:05.825Z,11.1
2023-04-15T19:04:02.900Z,11.2
2023-04-15T19:06:02.533Z,11.2
2023-04-15T19:08:03.013Z,11.2
2023-04-15T19:10:03.089Z,11.3
2023-04-15T19:12:03.399Z,11.4
2023-04-15T19:14:02.361Z,11.2
2023-04-15T19:16:02.858Z,11.2
2023-04-15T19:18:04.691Z,11.2
2023-04-15T19:20:02.786Z,11.3
2023-04-15T19:22:03.008Z,11.3
2023-04-15T19:24:03.244Z,11.3
2023-04-15T19:26:02.962Z,11.4
2023-04-15T19:28:02.728Z,11.4
2023-04-15T19:30:03.716Z,11.4
2023-04-15T19:32:02.521Z,11.3
2023-04-15T19:34:02.420Z,11.2
2023-04-15T19:36:05.321Z,11.1
2023-04-15T19:38:04.400Z,11.1
2023-04-15T19:40:02.403Z,11.2
2023-04-15T19:42:03.561Z,11.3
2023-04-15T19:44:03.885Z,11.3
2023-04-15T19:46:03.117Z,11.2
2023-04-15T19:48:02.842Z,11.2
2023-04-15T19:50:02.978Z,11.2
2023-04-15T19:52:03.800Z,11.2
2023-04-15T19:54:02.553Z,11.2
2023-04-15T19:56:02.814Z,11.2
2023-04-15T19:58:03.325Z,11.2
2023-04-15T20:00:03.129Z,11.2
2023-04-15T20:02:02.840Z,11.3
2023-04-15T20:04:03.530Z,11.3
2023-04-15T20:06:02.629Z,11.3
2023-04-15T20:08:02.603Z,11.3
2023-04-15T20:10:02.549Z,11.3
2023-04-15T20:12:47.207Z,11.3
2023-04-15T20:14:02.385Z,11.3
2023-04-15T20:16:02.897Z,11.3
2023-04-15T20:18:02.378Z,11.3
2023-04-15T20:20:04.082Z,11.3
2023-04-15T20:22:02.368Z,11.4
2023-04-15T20:24:03.539Z,11.4
2023-04-15T20:26:02.351Z,11.4
2023-04-15T20:28:03.373Z,11.4
2023-04-15T20:30:04.229Z,11.5
2023-04-15T20:32:03.300Z,11.5
2023-04-15T20:34:02.399Z,11.6
2023-04-15T20:36:02.599Z,11.5
2023-04-15T20:38:03.468Z,11.4
2023-04-15T20:40:03.211Z,11.4
2023-04-15T20:42:02.928Z,11.4
2023-04-15T20:44:02.865Z,11.4
2023-04-15T20:46:10.116Z,11.4
2023-04-15T20:48:02.585Z,11.4
2023-04-15T20:50:02.525Z,11.5
2023-04-15T20:52:03.396Z,11.5
2023-04-15T20:54:02.274Z,11.5
2023-04-15T20:56:02.749Z,11.6
2023-04-15T20:58:02.607Z,11.6
2023-04-15T21:00:04.345Z,11.7
2023-04-15T21:02:03.107Z,11.7
2023-04-15T21:04:02.624Z,11.7
2023-04-15T21:06:03.078Z,11.7
2023-04-15T21:08:02.536Z,11.6
2023-04-15T21:10:02.500Z,11.5
2023-04-15T21:12:02.625Z,11.4
2023-04-15T21:14:02.340Z,11.4
2023-04-15T21:16:02.704Z,11.3
2023-04-15T21:18:02.540Z,11.4
2023-04-15T21:20:02.674Z,11.4
2023-04-15T21:22:02.776Z,11.4
2023-04-15T21:24:02.594Z,11.3
2023-04-15T21:26:03.233Z,11.3
2023-04-15T21:28:03.150Z,11.2
2023-04-15T21:30:03.134Z,11.2
2023-04-15T21:32:02.501Z,11.2
2023-04-15T21:34:02.370Z,11.2
2023-04-15T21:36:03.385Z,11.2
2023-04-15T21:38:02.299Z,11.3
2023-04-15T21:40:03.032Z,11.2
2023-04-15T21:42:03.214Z,11.2
2023-04-15T21:44:03.505Z,11.2
2023-04-15T21:46:23.090Z,11.2
2023-04-15T21:48:08.201Z,11.2
2023-04-15T21:50:02.354Z,11.2
2023-04-15T21:52:04.074Z,11.2
2023-04-15T21:54:03.077Z,11.2
2023-04-15T21:56:02.554Z,11.2
2023-04-15T21:58:03.301Z,11.1
2023-04-15T22:00:05.607Z,11.2
2023-04-15T22:02:02.396Z,11.2
2023-04-15T22:04:02.552Z,11.1
2023-04-15T22:06:03.226Z,11.1
2023-04-15T22:08:04.088Z,11.1
2023-04-15T22:10:02.398Z,11.1
2023-04-15T22:12:05.168Z,11.1
2023-04-15T22:14:02.315Z,11.1
2023-04-15T22:16:02.472Z,11.1
2023-04-15T22:18:02.699Z,11.1
2023-04-15T22:20:03.779Z,11.2
2023-04-15T22:22:02.403Z,11.2
2023-04-15T22:24:31.665Z,11.2
2023-04-15T22:26:02.322Z,11.2
2023-04-15T22:28:02.628Z,11.2
2023-04-15T22:30:03.261Z,11.1
2023-04-15T22:32:02.566Z,11.1
2023-04-15T22:34:02.545Z,11.2
2023-04-15T22:36:03.023Z,11.2
2023-04-15T22:38:03.052Z,11.2
2023-04-15T22:40:02.742Z,11.1
2023-04-15T22:42:02.771Z,11.1
2023-04-15T22:44:02.479Z,10.8
2023-04-15T22:46:02.383Z,10.7
2023-04-15T22:48:02.757Z,10.7
2023-04-15T22:50:02.378Z,10.6
2023-04-15T22:52:03.275Z,10.6
2023-04-15T22:54:02.958Z,10.6
2023-04-15T22:56:02.624Z,10.6
2023-04-15T22:58:02.300Z,10.6
2023-04-15T23:00:03.043Z,10.5
2023-04-15T23:02:02.407Z,10.4
2023-04-15T23:04:08.292Z,10.5
2023-04-15T23:06:02.791Z,10.5
2023-04-15T23:08:02.757Z,10.5
2023-04-15T23:10:02.386Z,10.5
2023-04-15T23:12:03.810Z,10.5
2023-04-15T23:14:03.094Z,10.5
2023-04-15T23:16:03.603Z,10.5
2023-04-15T23:18:03.048Z,10.5
2023-04-15T23:20:03.083Z,10.5
2023-04-15T23:22:03.502Z,10.5
2023-04-15T23:24:03.303Z,10.5
2023-04-15T23:26:03.420Z,10.5
2023-04-15T23:28:02.397Z,10.4
2023-04-15T23:30:02.393Z,10.4
2023-04-15T23:32:02.667Z,10.4
2023-04-15T23:34:03.597Z,10.4
2023-04-15T23:36:02.289Z,10.4
2023-04-15T23:38:02.508Z,10.3
2023-04-15T23:40:02.585Z,10.3
2023-04-15T23:42:03.024Z,10.3
2023-04-15T23:44:02.720Z,10.3
2023-04-15T23:46:02.520Z,10.3
2023-04-15T23:48:02.749Z,10.4
2023-04-15T23:50:03.401Z,10.4
2023-04-15T23:52:02.418Z,10.3
2023-04-15T23:54:02.897Z,10.3
2023-04-15T23:56:02.639Z,10.3
2023-04-15T23:58:02.394Z,10.3
